Map

Track Data

SID SEASON NUMBER BASIN SUBBASIN NAME ISO_TIME NATURE LAT LON WMO_WIND WMO_PRES WMO_AGENCY TRACK_TYPE DIST2LAND LANDFALL IFLAG USA_AGENCY USA_ATCF_ID USA_LAT USA_LON USA_RECORD USA_STATUS USA_WIND USA_PRES USA_SSHS USA_R34_NE USA_R34_SE USA_R34_SW USA_R34_NW USA_R50_NE USA_R50_SE USA_R50_SW USA_R50_NW USA_R64_NE USA_R64_SE USA_R64_SW USA_R64_NW USA_POCI USA_ROCI USA_RMW USA_EYE TOKYO_LAT TOKYO_LON TOKYO_GRADE TOKYO_WIND TOKYO_PRES TOKYO_R50_DIR TOKYO_R50_LONG TOKYO_R50_SHORT TOKYO_R30_DIR TOKYO_R30_LONG TOKYO_R30_SHORT TOKYO_LAND CMA_LAT CMA_LON CMA_CAT CMA_WIND CMA_PRES HKO_LAT HKO_LON HKO_CAT HKO_WIND HKO_PRES NEWDELHI_LAT NEWDELHI_LON NEWDELHI_GRADE NEWDELHI_WIND NEWDELHI_PRES NEWDELHI_CI NEWDELHI_DP NEWDELHI_POCI REUNION_LAT REUNION_LON REUNION_TYPE REUNION_WIND REUNION_PRES REUNION_TNUM REUNION_CI REUNION_RMW REUNION_R34_NE REUNION_R34_SE REUNION_R34_SW REUNION_R34_NW REUNION_R50_NE REUNION_R50_SE REUNION_R50_SW REUNION_R50_NW REUNION_R64_NE REUNION_R64_SE REUNION_R64_SW REUNION_R64_NW BOM_LAT BOM_LON BOM_TYPE BOM_WIND BOM_PRES BOM_TNUM BOM_CI BOM_RMW BOM_R34_NE BOM_R34_SE BOM_R34_SW BOM_R34_NW BOM_R50_NE BOM_R50_SE BOM_R50_SW BOM_R50_NW BOM_R64_NE BOM_R64_SE BOM_R64_SW BOM_R64_NW BOM_ROCI BOM_POCI BOM_EYE BOM_POS_METHOD BOM_PRES_METHOD NADI_LAT NADI_LON NADI_CAT NADI_WIND NADI_PRES WELLINGTON_LAT WELLINGTON_LON WELLINGTON_WIND WELLINGTON_PRES DS824_LAT DS824_LON DS824_STAGE DS824_WIND DS824_PRES TD9636_LAT TD9636_LON TD9636_STAGE TD9636_WIND TD9636_PRES TD9635_LAT TD9635_LON TD9635_WIND TD9635_PRES TD9635_ROCI NEUMANN_LAT NEUMANN_LON NEUMANN_CLASS NEUMANN_WIND NEUMANN_PRES MLC_LAT MLC_LON MLC_CLASS MLC_WIND MLC_PRES USA_GUST BOM_GUST BOM_GUST_PER REUNION_GUST REUNION_GUST_PER USA_SEAHGT USA_SEARAD_NE USA_SEARAD_SE USA_SEARAD_SW USA_SEARAD_NW STORM_SPEED STORM_DIR
1930049N18117 1930 14 WP MM NOT_NAMED 1930-02-18 10:00:00 NR 17.7000 117.300 main 308 308 __________O___ -1 17.7000 117.300 7 1 45
1930049N18117 1930 14 WP MM NOT_NAMED 1930-02-18 12:00:00 NR 17.7395 117.330 main 308 305 __________P___ -1 17.7395 117.330 7 2 39
1930049N18117 1930 14 WP MM NOT_NAMED 1930-02-18 15:00:00 NR 17.8276 117.408 main 305 289 __________P___ -1 17.8276 117.408 7 3 42
1930049N18117 1930 14 WP MM NOT_NAMED 1930-02-18 18:00:00 NR 17.9903 117.569 main 289 265 __________P___ -1 17.9903 117.569 7 6 44
1930049N18117 1930 14 WP MM NOT_NAMED 1930-02-18 21:00:00 NR 18.2720 117.863 main 265 259 __________P___ -1 18.2720 117.863 7 9 45
1930049N18117 1930 14 WP MM NOT_NAMED 1930-02-18 22:00:00 NR 18.4000 118.000 main 259 241 __________O___ -1 18.4000 118.000 2 13 46
1930049N18117 1930 14 WP MM NOT_NAMED 1930-02-19 00:00:00 NR 18.7119 118.338 main 241 196 __________P___ -1 18.7119 118.338 2 15 46
1930049N18117 1930 14 WP MM NOT_NAMED 1930-02-19 03:00:00 NR 19.2929 118.978 main 196 183 __________P___ -1 19.2929 118.978 2 18 46
1930049N18117 1930 14 WP MM NOT_NAMED 1930-02-19 06:00:00 NR 19.9620 119.728 main 194 135 __________P___ -1 19.9620 119.728 2 20 47
1930049N18117 1930 14 WP MM NOT_NAMED 1930-02-19 09:00:00 NR 20.6664 120.531 main 135 111 __________P___ -1 20.6664 120.531 2 21 47
1930049N18117 1930 14 WP MM NOT_NAMED 1930-02-19 10:00:00 NR 20.9000 120.800 main 111 73 __________O___ -1 20.9000 120.800 2 19 45
1930049N18117 1930 14 WP MM NOT_NAMED 1930-02-19 12:00:00 NR 21.3438 121.257 main 78 68 __________P___ -1 21.3438 121.257 2 19 44
1930049N18117 1930 14 WP MM NOT_NAMED 1930-02-19 15:00:00 NR 22.0169 121.959 main 113 113 __________P___ -1 22.0169 121.959 2 19 45
1930049N18117 1930 14 WP MM NOT_NAMED 1930-02-19 18:00:00 NR 22.6782 122.720 main 140 147 __________P___ -1 22.6782 122.720 2 20 49
1930049N18117 1930 14 WP MM NOT_NAMED 1930-02-19 21:00:00 NR 23.3037 123.582 main 218 218 __________P___ -1 23.3037 123.582 2 20 53
1930049N18117 1930 14 WP MM NOT_NAMED 1930-02-19 22:00:00 NR 23.5000 123.900 main 231 231 __________O___ -1 23.5000 123.900 2 22 60
1930049N18117 1930 14 WP MM NOT_NAMED 1930-02-20 00:00:00 NR 23.8469 124.603 main 284 291 __________P___ -1 23.8469 124.603 2 23 64
1930049N18117 1930 14 WP MM NOT_NAMED 1930-02-20 03:00:00 NR 24.3223 125.763 main 391 391 __________P___ -1 24.3223 125.763 2 24 67
1930049N18117 1930 14 WP MM NOT_NAMED 1930-02-20 06:00:00 NR 24.7738 127.005 main 504 514 __________P___ -1 24.7738 127.005 2 25 68
1930049N18117 1930 14 WP MM NOT_NAMED 1930-02-20 09:00:00 NR 25.2368 128.278 main 634 634 __________P___ -1 25.2368 128.278 2 25 68
1930049N18117 1930 14 WP MM NOT_NAMED 1930-02-20 10:00:00 NR 25.4000 128.700 main 655 603 __________O___ -1 25.4000 128.700 4 25 66
1930049N18117 1930 14 WP MM NOT_NAMED 1930-02-20 12:00:00 NR 25.7455 129.534 main 603 524 __________P___ -1 25.7455 129.534 4 25 64
1930049N18117 1930 14 WP MM NOT_NAMED 1930-02-20 15:00:00 NR 26.3036 130.763 main 524 472 __________P___ -1 26.3036 130.763 4 25 62
1930049N18117 1930 14 WP MM NOT_NAMED 1930-02-20 18:00:00 NR 26.8941 131.980 main 474 454 __________P___ -1 26.8941 131.980 4 25 61
1930049N18117 1930 14 WP MM NOT_NAMED 1930-02-20 21:00:00 NR 27.4986 133.194 main 459 455 __________P___ -1 27.4986 133.194 4 25 61
1930049N18117 1930 14 WP MM NOT_NAMED 1930-02-20 22:00:00 NR 27.7000 133.600 main 463 __________O___ -1 27.7000 133.600 4 25 61

Digital Typhoon Data and Search

About IBTrACS Database

This database is a web-friendly format of International Best Track Archive for Climate Stewardship (IBTrACS), a global best track data archive curated by NOAA dating back to 1842.

Updated: 2021-11-26